Time;durP1;ratioP1;P1;durP2;ratioP2;P2;SDS_P1;SDS_P2;PMS_P1;PMS_P2;Temp;Humidity;BMP_temperature;BMP_pressure;BME280_temperature;BME280_humidity;BME280_pressure;Samples;Min_cycle;Max_cycle;Signal;HPM_P1;HPM_P2
2021/09/11 00:00:37;;;;;;;27.63;21.10;;;17.60;99.90;;;;;;5116789;27;20546;-47
2021/09/11 00:03:04;;;;;;;27.00;20.53;;;17.50;99.90;;;;;;5122833;27;20189;-47
2021/09/11 00:05:32;;;;;;;26.53;20.73;;;17.60;99.90;;;;;;5132858;27;20216;-50
2021/09/11 00:07:59;;;;;;;28.80;20.70;;;17.60;99.90;;;;;;5110672;27;20195;-45
2021/09/11 00:10:27;;;;;;;23.80;19.17;;;17.60;99.90;;;;;;5130138;27;20216;-49
2021/09/11 00:12:54;;;;;;;25.90;20.17;;;17.60;99.90;;;;;;5111416;27;20212;-47
2021/09/11 00:15:20;;;;;;;25.43;18.77;;;17.60;99.90;;;;;;5105820;27;20226;-52
2021/09/11 00:17:48;;;;;;;22.17;16.67;;;17.60;99.90;;;;;;5114150;27;20205;-44
2021/09/11 00:20:15;;;;;;;23.53;17.93;;;17.60;99.90;;;;;;5116137;27;20287;-54
2021/09/11 00:22:43;;;;;;;25.53;18.87;;;17.60;99.90;;;;;;5114771;27;20920;-44
2021/09/11 00:25:11;;;;;;;20.17;15.80;;;17.60;99.90;;;;;;5119066;27;20220;-49
2021/09/11 00:27:37;;;;;;;21.57;16.07;;;17.60;99.90;;;;;;5115256;27;21019;-44
2021/09/11 00:30:05;;;;;;;22.37;16.13;;;17.60;99.90;;;;;;5110663;27;20204;-51
2021/09/11 00:32:32;;;;;;;17.63;13.93;;;17.60;99.90;;;;;;5100903;28;20193;-46
2021/09/11 00:34:58;;;;;;;14.90;13.33;;;17.60;99.90;;;;;;5123753;27;20216;-48
2021/09/11 00:37:25;;;;;;;16.93;14.13;;;17.60;99.90;;;;;;5116428;27;20208;-48
2021/09/11 00:39:53;;;;;;;17.27;13.67;;;17.60;99.90;;;;;;5136573;27;20188;-49
2021/09/11 00:42:19;;;;;;;16.80;13.10;;;17.60;99.90;;;;;;5120769;27;20704;-46
2021/09/11 00:44:46;;;;;;;13.73;12.23;;;17.60;99.90;;;;;;5123338;27;20227;-49
2021/09/11 00:47:13;;;;;;;15.20;12.13;;;17.60;99.90;;;;;;5105377;27;20201;-48
2021/09/11 00:49:39;;;;;;;12.23;10.93;;;17.60;99.90;;;;;;5107151;27;20773;-47
2021/09/11 00:52:07;;;;;;;13.57;11.67;;;17.60;99.90;;;;;;5111941;27;20219;-48
2021/09/11 00:54:33;;;;;;;15.27;12.73;;;17.60;99.90;;;;;;5107899;27;20220;-50
2021/09/11 00:57:01;;;;;;;15.90;12.17;;;17.60;99.90;;;;;;5115323;27;20228;-44
2021/09/11 00:59:28;;;;;;;12.23;10.93;;;17.60;99.90;;;;;;5103586;27;20201;-46
2021/09/11 01:01:54;;;;;;;12.57;10.70;;;17.60;99.90;;;;;;5105880;27;20203;-44
2021/09/11 01:04:21;;;;;;;14.67;10.97;;;17.60;99.90;;;;;;5113578;27;20550;-54
2021/09/11 01:06:48;;;;;;;15.63;11.50;;;17.60;99.90;;;;;;5112738;27;20196;-47
2021/09/11 01:09:15;;;;;;;12.33;11.10;;;17.60;99.90;;;;;;5108594;27;20215;-55
2021/09/11 01:11:42;;;;;;;14.67;10.77;;;17.60;99.90;;;;;;5116167;27;20196;-44
2021/09/11 01:14:10;;;;;;;14.10;11.57;;;17.60;99.90;;;;;;5122955;27;20193;-51
2021/09/11 01:16:37;;;;;;;12.93;10.90;;;17.60;99.90;;;;;;5106496;27;20232;-44
2021/09/11 01:19:04;;;;;;;14.97;11.73;;;17.50;99.90;;;;;;5103062;27;20640;-46
2021/09/11 01:21:30;;;;;;;12.47;11.03;;;17.60;99.90;;;;;;5104372;27;20192;-45
2021/09/11 01:23:59;;;;;;;14.97;10.53;;;17.60;99.90;;;;;;5119775;27;20200;-48
2021/09/11 01:26:26;;;;;;;12.53;10.20;;;17.60;99.90;;;;;;5131149;27;20184;-48
2021/09/11 01:28:52;;;;;;;16.67;11.30;;;17.50;99.90;;;;;;5144073;27;20210;-48
2021/09/11 01:31:19;;;;;;;13.77;11.07;;;17.50;99.90;;;;;;5117262;27;20227;-47
2021/09/11 01:33:46;;;;;;;15.97;11.40;;;17.50;99.90;;;;;;5114022;27;20736;-47
2021/09/11 01:36:13;;;;;;;15.07;10.97;;;17.50;99.90;;;;;;5123130;27;20669;-48
2021/09/11 01:38:40;;;;;;;14.00;11.03;;;17.50;99.90;;;;;;5120178;28;20819;-45
2021/09/11 01:41:09;;;;;;;14.70;11.83;;;17.50;99.90;;;;;;5109114;27;20208;-46
2021/09/11 01:43:36;;;;;;;13.97;12.47;;;17.50;99.90;;;;;;5118610;27;20802;-45
2021/09/11 01:46:03;;;;;;;17.43;12.53;;;17.50;99.90;;;;;;5120742;28;20223;-53
2021/09/11 01:48:30;;;;;;;13.70;11.83;;;17.40;99.90;;;;;;5097668;27;20189;-45
2021/09/11 01:50:57;;;;;;;14.50;11.80;;;17.40;99.90;;;;;;5113123;27;20193;-46
2021/09/11 01:53:24;;;;;;;13.80;12.27;;;17.40;99.90;;;;;;5108094;27;20200;-47
2021/09/11 01:55:50;;;;;;;13.47;11.57;;;17.40;99.90;;;;;;5106044;27;20227;-52
2021/09/11 01:58:18;;;;;;;16.13;12.63;;;17.40;99.90;;;;;;5111396;27;20193;-48
2021/09/11 02:00:45;;;;;;;15.03;11.83;;;17.40;99.90;;;;;;5114460;27;20208;-46
2021/09/11 02:03:12;;;;;;;16.60;13.50;;;17.40;99.90;;;;;;5103118;27;20727;-50
2021/09/11 02:05:39;;;;;;;18.03;12.93;;;17.40;99.90;;;;;;5127925;27;20227;-52
2021/09/11 02:08:07;;;;;;;17.27;12.97;;;17.40;99.90;;;;;;5142761;27;20203;-49
2021/09/11 02:10:33;;;;;;;15.63;12.33;;;17.40;99.90;;;;;;5119133;27;20224;-47
2021/09/11 02:13:00;;;;;;;16.87;14.07;;;17.40;99.90;;;;;;5132438;27;20263;-50
2021/09/11 02:15:28;;;;;;;17.13;14.37;;;17.40;99.90;;;;;;5120008;27;20212;-47
2021/09/11 02:17:55;;;;;;;17.03;14.23;;;17.40;99.90;;;;;;5117653;27;20207;-48
2021/09/11 02:20:22;;;;;;;15.43;13.43;;;17.40;99.90;;;;;;5111338;27;20874;-51
2021/09/11 02:22:48;;;;;;;18.33;14.50;;;17.40;99.90;;;;;;5130774;27;20208;-44
2021/09/11 02:25:15;;;;;;;19.73;14.63;;;17.40;99.90;;;;;;5104700;27;20248;-55
2021/09/11 02:27:41;;;;;;;20.90;15.57;;;17.40;99.90;;;;;;5116088;27;20200;-47
2021/09/11 02:30:10;;;;;;;19.27;14.67;;;17.40;99.90;;;;;;5116029;27;20580;-51
2021/09/11 02:32:38;;;;;;;22.97;16.20;;;17.40;99.90;;;;;;5107830;27;20210;-45
2021/09/11 02:35:06;;;;;;;21.70;15.90;;;17.40;99.90;;;;;;5113547;27;20239;-52
2021/09/11 02:37:33;;;;;;;20.40;15.20;;;17.40;99.90;;;;;;5117679;27;20197;-44
2021/09/11 02:39:59;;;;;;;21.27;16.00;;;17.40;99.90;;;;;;5115458;27;20190;-50
2021/09/11 02:42:26;;;;;;;21.67;15.73;;;17.40;99.90;;;;;;5102157;27;20216;-49
2021/09/11 02:44:52;;;;;;;19.70;15.53;;;17.40;99.90;;;;;;5114027;27;20587;-47
2021/09/11 02:47:20;;;;;;;21.73;16.27;;;17.40;99.90;;;;;;5112553;27;20189;-45
2021/09/11 02:49:48;;;;;;;26.40;16.63;;;17.40;99.90;;;;;;5113084;27;20205;-45
2021/09/11 02:52:14;;;;;;;23.53;16.60;;;17.40;99.90;;;;;;5119709;27;20677;-46
2021/09/11 02:54:41;;;;;;;28.43;17.50;;;17.40;99.90;;;;;;5117599;27;20208;-49
2021/09/11 02:57:08;;;;;;;27.07;17.17;;;17.40;99.90;;;;;;5110963;27;20224;-45
2021/09/11 02:59:35;;;;;;;25.33;17.57;;;17.40;99.90;;;;;;5116144;27;20943;-46
2021/09/11 03:02:01;;;;;;;26.77;17.80;;;17.40;99.90;;;;;;5115404;27;20193;-48
2021/09/11 03:04:28;;;;;;;27.60;18.30;;;17.40;99.90;;;;;;5101568;27;20228;-46
2021/09/11 03:06:56;;;;;;;28.30;19.57;;;17.40;99.90;;;;;;5118256;27;20207;-49
2021/09/11 03:09:22;;;;;;;27.97;18.57;;;17.40;99.90;;;;;;5114065;27;20188;-51
2021/09/11 03:11:49;;;;;;;23.97;17.63;;;17.40;99.90;;;;;;5108864;27;20219;-48
2021/09/11 03:14:16;;;;;;;26.53;18.93;;;17.40;99.90;;;;;;5115080;27;20775;-50
2021/09/11 03:16:42;;;;;;;27.30;19.30;;;17.40;99.90;;;;;;5109220;27;20220;-49
2021/09/11 03:19:09;;;;;;;29.83;19.67;;;17.40;99.90;;;;;;5112301;27;20201;-52
2021/09/11 03:21:36;;;;;;;36.27;21.57;;;17.30;99.90;;;;;;5105770;27;20801;-47
2021/09/11 03:24:04;;;;;;;33.60;20.87;;;17.30;99.90;;;;;;5113959;27;20189;-46
2021/09/11 03:26:30;;;;;;;32.70;20.23;;;17.30;99.90;;;;;;5109562;27;20196;-48
2021/09/11 03:28:57;;;;;;;34.50;21.50;;;17.40;99.90;;;;;;5119160;27;20200;-49
2021/09/11 03:31:24;;;;;;;36.57;21.43;;;17.30;99.90;;;;;;5108181;27;20203;-49
2021/09/11 03:33:50;;;;;;;33.70;22.23;;;17.40;99.90;;;;;;5118319;27;20209;-46
2021/09/11 03:36:17;;;;;;;38.77;22.87;;;17.40;99.90;;;;;;5105996;27;20220;-49
2021/09/11 03:38:43;;;;;;;40.13;22.67;;;17.40;99.90;;;;;;5115348;27;20201;-49
2021/09/11 03:41:11;;;;;;;37.40;22.07;;;17.40;99.90;;;;;;5102647;27;20209;-49
2021/09/11 03:43:38;;;;;;;33.97;22.07;;;17.40;99.90;;;;;;5113818;27;20715;-48
2021/09/11 03:46:05;;;;;;;41.33;24.33;;;17.40;99.90;;;;;;5112048;27;20232;-49
2021/09/11 03:48:31;;;;;;;38.97;24.80;;;17.40;99.90;;;;;;5105517;27;20208;-50
2021/09/11 03:50:58;;;;;;;38.50;23.07;;;17.40;99.90;;;;;;5114806;27;20208;-47
2021/09/11 03:53:25;;;;;;;41.03;24.90;;;17.50;99.90;;;;;;5111665;27;20192;-46
2021/09/11 03:55:51;;;;;;;38.80;24.57;;;17.40;99.90;;;;;;5112840;27;21129;-46
2021/09/11 03:58:19;;;;;;;41.27;25.53;;;17.50;99.90;;;;;;5101214;27;20229;-51
2021/09/11 04:00:46;;;;;;;37.60;23.47;;;17.50;99.90;;;;;;5117251;27;20198;-44
2021/09/11 04:03:12;;;;;;;38.07;24.40;;;17.50;99.90;;;;;;5109596;27;20683;-51
2021/09/11 04:05:39;;;;;;;35.80;23.60;;;17.50;99.90;;;;;;5105414;27;20230;-47
2021/09/11 04:08:06;;;;;;;45.50;25.97;;;17.50;99.90;;;;;;5110722;27;20197;-50
2021/09/11 04:10:32;;;;;;;34.73;22.70;;;17.50;99.90;;;;;;5114204;27;20909;-47
2021/09/11 04:12:59;;;;;;;37.50;23.87;;;17.50;99.90;;;;;;5104486;27;20212;-45
2021/09/11 04:15:27;;;;;;;40.33;25.20;;;17.50;99.90;;;;;;5118525;27;20208;-49
2021/09/11 04:17:53;;;;;;;40.43;23.57;;;17.50;99.90;;;;;;5114201;27;20216;-50
2021/09/11 04:20:20;;;;;;;33.63;23.57;;;17.50;99.90;;;;;;5113264;27;20685;-44
2021/09/11 04:22:47;;;;;;;37.20;22.67;;;17.50;99.90;;;;;;5116554;27;20287;-46
2021/09/11 04:25:13;;;;;;;36.77;22.67;;;17.60;99.90;;;;;;5111541;27;20217;-47
2021/09/11 04:27:40;;;;;;;39.27;23.43;;;17.60;99.90;;;;;;5124128;27;20322;-49
2021/09/11 04:30:07;;;;;;;32.87;22.03;;;17.60;99.90;;;;;;5114233;27;20920;-49
2021/09/11 04:32:35;;;;;;;35.17;22.77;;;17.60;99.90;;;;;;5114945;27;20209;-49
2021/09/11 04:35:02;;;;;;;36.33;23.43;;;17.60;99.90;;;;;;5119359;27;20221;-47
2021/09/11 04:37:29;;;;;;;38.27;23.60;;;17.60;99.90;;;;;;5114975;27;20220;-45
2021/09/11 04:39:55;;;;;;;39.83;23.43;;;17.60;99.90;;;;;;5116657;27;20219;-46
2021/09/11 04:42:22;;;;;;;35.43;23.43;;;17.60;99.90;;;;;;5116018;27;20842;-49
2021/09/11 04:44:49;;;;;;;33.67;22.93;;;17.60;99.90;;;;;;5111413;27;20229;-49
2021/09/11 04:47:15;;;;;;;37.63;24.07;;;17.60;99.90;;;;;;5118870;27;20197;-53
2021/09/11 04:49:43;;;;;;;37.33;24.13;;;17.70;99.90;;;;;;5118967;27;20201;-47
2021/09/11 04:52:10;;;;;;;42.00;23.80;;;17.70;99.90;;;;;;5121295;27;20201;-54
2021/09/11 04:54:37;;;;;;;42.93;22.67;;;17.60;99.90;;;;;;5120501;27;20229;-44
2021/09/11 04:57:04;;;;;;;35.80;22.37;;;17.60;99.90;;;;;;5123184;27;20216;-53
2021/09/11 04:59:30;;;;;;;38.17;22.40;;;17.60;99.90;;;;;;5112223;27;20223;-48
2021/09/11 05:01:57;;;;;;;41.13;21.93;;;17.60;99.90;;;;;;5133157;27;20201;-47
2021/09/11 05:04:24;;;;;;;38.87;22.93;;;17.60;99.90;;;;;;5113099;27;20224;-48
2021/09/11 05:06:52;;;;;;;39.03;22.97;;;17.60;99.90;;;;;;5109245;27;20192;-47
2021/09/11 05:09:18;;;;;;;41.77;23.93;;;17.70;99.90;;;;;;5118443;27;20204;-45
2021/09/11 05:11:45;;;;;;;36.83;22.07;;;17.60;99.90;;;;;;5094873;27;20672;-49
2021/09/11 05:14:12;;;;;;;37.60;23.40;;;17.70;99.90;;;;;;5101815;27;20205;-44
2021/09/11 05:16:38;;;;;;;38.30;22.70;;;17.70;99.90;;;;;;5117428;27;20208;-49
2021/09/11 05:19:05;;;;;;;37.40;23.00;;;17.70;99.90;;;;;;5114818;27;20207;-45
2021/09/11 05:21:31;;;;;;;40.33;23.83;;;17.80;99.90;;;;;;5116166;27;20202;-50
2021/09/11 05:23:59;;;;;;;35.97;21.87;;;17.70;99.90;;;;;;5107288;27;20208;-45
2021/09/11 05:26:26;;;;;;;37.47;22.07;;;17.80;99.90;;;;;;5102953;27;20212;-45
2021/09/11 05:28:53;;;;;;;38.53;24.07;;;17.80;99.90;;;;;;5106621;27;20196;-44
2021/09/11 05:31:19;;;;;;;40.63;24.43;;;17.80;99.90;;;;;;5109076;27;20577;-45
2021/09/11 05:33:46;;;;;;;42.60;23.47;;;17.80;99.90;;;;;;5102273;27;20205;-44
2021/09/11 05:36:13;;;;;;;43.43;23.87;;;17.80;99.90;;;;;;5114778;27;20217;-51
2021/09/11 05:38:39;;;;;;;48.93;25.67;;;17.80;99.90;;;;;;5114204;27;20352;-48
2021/09/11 05:41:08;;;;;;;48.47;25.37;;;17.80;99.90;;;;;;5122361;27;20193;-44
2021/09/11 05:43:34;;;;;;;54.70;28.03;;;17.80;99.90;;;;;;5102046;27;20223;-47
2021/09/11 05:46:01;;;;;;;53.07;28.30;;;17.80;99.90;;;;;;5113485;27;20227;-47
2021/09/11 05:48:27;;;;;;;52.97;28.47;;;17.80;99.90;;;;;;5128432;27;21110;-48
2021/09/11 05:50:54;;;;;;;53.87;28.83;;;17.80;99.90;;;;;;5114076;27;20219;-50
2021/09/11 05:53:20;;;;;;;55.67;29.03;;;17.80;99.90;;;;;;5128812;27;20200;-50
2021/09/11 05:55:47;;;;;;;51.57;28.27;;;17.80;99.90;;;;;;5117913;27;20216;-44
2021/09/11 05:58:15;;;;;;;54.57;27.90;;;17.90;99.90;;;;;;5113758;27;20216;-50
2021/09/11 06:00:42;;;;;;;53.53;28.70;;;17.90;99.90;;;;;;5097135;27;20208;-43
2021/09/11 06:03:08;;;;;;;50.47;28.23;;;17.90;99.90;;;;;;5132103;27;20578;-45
2021/09/11 06:05:35;;;;;;;50.77;27.50;;;17.90;99.90;;;;;;5121611;27;20216;-49
2021/09/11 06:08:02;;;;;;;46.93;25.93;;;17.90;99.90;;;;;;5129457;27;20204;-48
2021/09/11 06:10:28;;;;;;;46.97;26.93;;;18.00;99.90;;;;;;5108540;27;20199;-51
2021/09/11 06:12:55;;;;;;;53.77;26.67;;;18.00;99.90;;;;;;5116245;27;20201;-48
2021/09/11 06:15:23;;;;;;;46.43;27.03;;;17.90;99.90;;;;;;5120622;27;20212;-45
2021/09/11 06:17:50;;;;;;;48.13;25.97;;;18.00;99.90;;;;;;5123641;27;20224;-51
2021/09/11 06:20:16;;;;;;;47.40;26.40;;;18.00;99.90;;;;;;5113088;27;20197;-46
2021/09/11 06:22:43;;;;;;;44.13;25.77;;;18.00;99.90;;;;;;5108087;27;20198;-46
2021/09/11 06:25:11;;;;;;;48.60;27.57;;;18.00;99.90;;;;;;5107469;27;20723;-46
2021/09/11 06:27:38;;;;;;;48.50;27.83;;;18.00;99.90;;;;;;5107224;27;20182;-46
2021/09/11 06:30:06;;;;;;;47.33;28.20;;;18.00;99.90;;;;;;5115094;27;20305;-45
2021/09/11 06:32:34;;;;;;;46.10;27.73;;;18.10;99.90;;;;;;5105503;27;20676;-50
2021/09/11 06:35:01;;;;;;;54.03;29.97;;;18.10;99.90;;;;;;5128763;27;20220;-52
2021/09/11 06:37:27;;;;;;;51.40;28.77;;;18.10;99.90;;;;;;5107275;27;20224;-49
2021/09/11 06:39:54;;;;;;;53.63;28.67;;;18.10;99.90;;;;;;5113361;27;20187;-52
2021/09/11 06:42:21;;;;;;;58.37;29.80;;;18.10;99.90;;;;;;5110071;27;20205;-45
2021/09/11 06:44:47;;;;;;;62.17;29.07;;;18.20;99.90;;;;;;5101288;27;20245;-48
2021/09/11 06:47:15;;;;;;;56.83;29.17;;;18.20;99.90;;;;;;5100151;27;20201;-43
2021/09/11 06:49:43;;;;;;;55.63;28.20;;;18.20;99.90;;;;;;5116010;27;20208;-52
2021/09/11 06:52:10;;;;;;;56.50;28.80;;;18.20;99.90;;;;;;5116569;27;20208;-45
2021/09/11 06:54:36;;;;;;;64.83;30.90;;;18.20;99.90;;;;;;5110487;27;20713;-52
2021/09/11 06:57:03;;;;;;;61.10;30.63;;;18.20;99.90;;;;;;5114397;27;20207;-45
2021/09/11 06:59:30;;;;;;;60.50;29.33;;;18.30;99.90;;;;;;5116018;27;20216;-49
2021/09/11 07:01:57;;;;;;;57.10;29.13;;;18.30;99.90;;;;;;5113374;27;21473;-48
2021/09/11 07:04:25;;;;;;;56.47;28.00;;;18.40;99.90;;;;;;5137369;27;20571;-46
2021/09/11 07:06:53;;;;;;;57.43;29.20;;;18.40;99.90;;;;;;5130703;27;20197;-49
2021/09/11 07:09:19;;;;;;;54.20;27.27;;;18.50;99.90;;;;;;5107331;27;20276;-45
2021/09/11 07:11:46;;;;;;;51.27;28.00;;;18.50;99.90;;;;;;5121475;27;20192;-45
2021/09/11 07:14:13;;;;;;;55.47;27.70;;;18.70;99.90;;;;;;5113644;27;20553;-45
2021/09/11 07:16:40;;;;;;;54.00;27.73;;;18.70;99.90;;;;;;5111615;27;20275;-50
2021/09/11 07:19:06;;;;;;;51.53;27.60;;;18.70;99.90;;;;;;5136797;27;20207;-45
2021/09/11 07:21:33;;;;;;;48.40;26.73;;;18.80;99.90;;;;;;5140861;27;21953;-46
2021/09/11 07:24:01;;;;;;;56.80;27.63;;;18.80;99.90;;;;;;5136398;27;20214;-47
2021/09/11 07:26:27;;;;;;;54.73;27.90;;;18.90;99.90;;;;;;5146099;27;20196;-46
2021/09/11 07:28:55;;;;;;;47.83;26.47;;;18.90;99.90;;;;;;5099752;27;20201;-48
2021/09/11 07:31:22;;;;;;;47.77;27.67;;;19.00;99.90;;;;;;5125991;27;20193;-49
2021/09/11 07:33:48;;;;;;;45.83;26.87;;;19.00;99.90;;;;;;5108228;27;20200;-47
2021/09/11 07:36:15;;;;;;;46.83;26.93;;;19.00;99.90;;;;;;5120692;27;20224;-46
2021/09/11 07:38:41;;;;;;;47.80;26.43;;;19.00;99.90;;;;;;5110785;27;20716;-46
2021/09/11 07:41:09;;;;;;;44.43;26.37;;;19.00;99.90;;;;;;5117377;27;20202;-49
2021/09/11 07:43:36;;;;;;;47.43;26.67;;;19.00;99.90;;;;;;5114957;27;20253;-44
2021/09/11 07:46:03;;;;;;;46.17;26.63;;;19.00;99.90;;;;;;5114343;27;20759;-47
2021/09/11 07:48:30;;;;;;;44.83;26.33;;;19.00;99.90;;;;;;5117860;27;20208;-49
2021/09/11 07:50:56;;;;;;;46.50;25.80;;;19.00;99.90;;;;;;5131187;27;20181;-47
2021/09/11 07:53:23;;;;;;;44.57;25.87;;;19.00;99.90;;;;;;5136885;27;20211;-51
2021/09/11 07:55:49;;;;;;;43.23;26.30;;;19.00;99.90;;;;;;5142858;27;20196;-44
2021/09/11 07:58:17;;;;;;;41.70;26.57;;;19.00;99.90;;;;;;5109924;27;20231;-44
2021/09/11 08:00:45;;;;;;;39.70;24.13;;;19.00;99.90;;;;;;5104705;27;20280;-45
2021/09/11 08:03:11;;;;;;;38.67;23.97;;;19.10;99.90;;;;;;5109130;27;20204;-45
2021/09/11 08:05:39;;;;;;;46.37;25.90;;;19.10;99.90;;;;;;5120706;27;20710;-51
2021/09/11 08:08:05;;;;;;;44.13;25.60;;;19.10;99.90;;;;;;5117906;27;20589;-46
2021/09/11 08:10:32;;;;;;;44.20;25.97;;;19.10;99.90;;;;;;5107870;27;20196;-49
2021/09/11 08:12:59;;;;;;;43.50;26.00;;;19.10;99.90;;;;;;5111397;27;20185;-51
2021/09/11 08:15:26;;;;;;;42.37;24.33;;;19.10;99.90;;;;;;5108200;27;20235;-51
2021/09/11 08:17:55;;;;;;;40.13;25.07;;;19.10;99.90;;;;;;5106240;27;20205;-48
2021/09/11 08:20:22;;;;;;;39.10;23.90;;;19.20;99.90;;;;;;5095976;27;20215;-51
2021/09/11 08:22:49;;;;;;;37.60;24.43;;;19.20;99.90;;;;;;5120587;27;20205;-45
2021/09/11 08:25:15;;;;;;;35.80;23.73;;;19.20;99.90;;;;;;5118274;27;20282;-53
2021/09/11 08:27:43;;;;;;;36.97;23.17;;;19.20;99.90;;;;;;5114071;27;20204;-51
2021/09/11 08:30:11;;;;;;;36.10;23.27;;;19.30;99.90;;;;;;5111662;27;20224;-45
2021/09/11 08:32:39;;;;;;;36.73;23.50;;;19.30;99.90;;;;;;5122099;27;20677;-52
2021/09/11 08:35:08;;;;;;;33.80;23.27;;;19.30;99.90;;;;;;5100880;27;20221;-46
2021/09/11 08:37:34;;;;;;;40.83;26.00;;;19.30;99.90;;;;;;5110113;27;20212;-52
2021/09/11 08:40:01;;;;;;;43.30;25.90;;;19.40;99.90;;;;;;5134443;27;20185;-46
2021/09/11 08:42:28;;;;;;;41.07;24.57;;;19.40;99.90;;;;;;5129706;27;20211;-49
2021/09/11 08:44:54;;;;;;;33.00;22.37;;;19.40;99.90;;;;;;5120387;27;20223;-51
2021/09/11 08:47:21;;;;;;;31.37;21.77;;;19.30;99.90;;;;;;5104604;28;20220;-48
2021/09/11 08:49:49;;;;;;;31.90;22.83;;;19.30;99.90;;;;;;5097890;27;20547;-45
2021/09/11 08:52:16;;;;;;;34.07;22.40;;;19.40;99.90;;;;;;5130802;27;20199;-51
2021/09/11 08:54:42;;;;;;;32.50;22.90;;;19.40;99.90;;;;;;5123305;27;21087;-50
2021/09/11 08:57:22;;;;;;;34.00;22.93;;;19.40;99.90;;;;;;5119439;27;20291;-51
2021/09/11 08:59:49;;;;;;;32.53;21.83;;;19.40;99.90;;;;;;5132731;27;20212;-48
2021/09/11 09:02:17;;;;;;;31.97;23.30;;;19.40;99.90;;;;;;5097713;27;20556;-52
2021/09/11 09:04:47;;;;;;;32.30;21.43;;;19.40;99.90;;;;;;5103120;28;20209;-46
2021/09/11 09:07:33;;;;;;;32.23;21.67;;;19.40;99.90;;;;;;5117672;27;20204;-54
2021/09/11 09:10:00;;;;;;;36.53;23.03;;;19.40;99.90;;;;;;5143853;27;20224;-49
2021/09/11 09:12:31;;;;;;;31.23;22.37;;;19.30;99.90;;;;;;5125656;27;20206;-51
2021/09/11 09:15:00;;;;;;;36.47;22.90;;;19.30;99.90;;;;;;5136526;27;20211;-45
2021/09/11 09:17:44;;;;;;;34.67;22.97;;;19.20;99.90;;;;;;5095804;27;20217;-46
2021/09/11 09:20:20;;;;;;;37.50;23.47;;;19.20;99.90;;;;;;5100952;27;20205;-50
2021/09/11 09:22:50;;;;;;;35.20;22.80;;;19.30;99.90;;;;;;5119974;27;20235;-49
2021/09/11 09:25:27;;;;;;;36.47;23.47;;;19.30;99.90;;;;;;5135068;27;20219;-55
2021/09/11 09:27:56;;;;;;;41.00;22.73;;;19.40;99.90;;;;;;5130727;27;20199;-50
2021/09/11 09:30:33;;;;;;;35.47;23.33;;;19.40;99.90;;;;;;5124673;27;20196;-55
2021/09/11 09:33:00;;;;;;;38.87;24.53;;;19.40;99.90;;;;;;5103797;28;20681;-46
2021/09/11 09:35:27;;;;;;;40.27;24.03;;;19.40;99.90;;;;;;5104024;27;20220;-47
2021/09/11 09:37:56;;;;;;;38.53;23.47;;;19.40;99.90;;;;;;5120189;27;20211;-47
2021/09/11 09:40:35;;;;;;;38.03;24.67;;;19.40;99.90;;;;;;5134158;27;20194;-53
2021/09/11 09:43:02;;;;;;;41.80;25.33;;;19.50;99.90;;;;;;5126378;27;20197;-46
2021/09/11 09:45:30;;;;;;;41.03;25.13;;;19.50;99.90;;;;;;5126249;27;20237;-47
2021/09/11 09:48:01;;;;;;;41.23;24.60;;;19.50;99.90;;;;;;5107955;27;20204;-48
2021/09/11 09:50:31;;;;;;;40.23;25.07;;;19.60;99.90;;;;;;5114739;27;21027;-49
2021/09/11 09:52:59;;;;;;;39.70;24.03;;;19.60;99.90;;;;;;5103117;27;20891;-46
2021/09/11 09:55:27;;;;;;;38.23;24.37;;;19.70;99.90;;;;;;5129992;27;20846;-48
2021/09/11 09:57:54;;;;;;;37.00;24.70;;;19.80;99.90;;;;;;5116491;27;20200;-48
2021/09/11 10:00:20;;;;;;;37.77;23.87;;;19.90;99.90;;;;;;5129033;27;20579;-52
2021/09/11 10:02:47;;;;;;;35.43;24.07;;;19.90;99.90;;;;;;5117177;27;20200;-46
2021/09/11 10:05:15;;;;;;;32.13;22.47;;;20.00;99.90;;;;;;5110381;27;20208;-53
2021/09/11 10:07:48;;;;;;;35.13;23.43;;;20.10;99.90;;;;;;5115269;27;20219;-47
2021/09/11 10:10:16;;;;;;;33.50;22.80;;;20.20;99.90;;;;;;5120693;27;20191;-55
2021/09/11 10:12:46;;;;;;;30.63;21.40;;;20.10;99.90;;;;;;5109655;27;20200;-49
2021/09/11 10:15:27;;;;;;;31.67;22.00;;;20.10;99.90;;;;;;5126876;27;20298;-54
2021/09/11 10:17:55;;;;;;;32.17;23.00;;;20.10;99.90;;;;;;5110075;27;20193;-50
2021/09/11 10:20:23;;;;;;;32.30;21.30;;;20.10;99.90;;;;;;5103053;27;20212;-58
2021/09/11 10:23:07;;;;;;;29.77;21.07;;;20.10;99.90;;;;;;5111377;27;20207;-52
2021/09/11 10:25:44;;;;;;;30.53;20.77;;;20.10;99.90;;;;;;5127281;27;20212;-47
2021/09/11 10:28:15;;;;;;;29.13;20.83;;;20.20;99.90;;;;;;5118385;27;20370;-54
2021/09/11 10:31:05;;;;;;;27.23;19.83;;;20.30;99.90;;;;;;5118063;27;20201;-48
2021/09/11 10:33:43;;;;;;;31.80;19.77;;;20.40;99.90;;;;;;5107189;27;20202;-54
2021/09/11 10:36:13;;;;;;;25.73;19.97;;;20.60;99.90;;;;;;5119990;27;20294;-49
2021/09/11 10:38:41;;;;;;;21.17;15.73;;;20.70;99.90;;;;;;5100788;27;21131;-49
2021/09/11 10:41:11;;;;;;;22.40;16.10;;;20.80;99.90;;;;;;5134967;27;20188;-53
2021/09/11 10:43:38;;;;;;;24.57;16.33;;;20.90;99.90;;;;;;5110015;27;24231;-55
2021/09/11 10:46:11;;;;;;;23.90;16.25;;;20.90;99.90;;;;;;5137561;27;20262;-51
2021/09/11 10:48:47;;;;;;;23.70;17.07;;;20.90;99.90;;;;;;5117258;27;20203;-56
2021/09/11 10:51:24;;;;;;;23.87;17.03;;;20.80;99.90;;;;;;5112974;27;20249;-52
2021/09/11 10:54:28;;;;;;;26.30;17.73;;;20.80;99.90;;;;;;5121820;27;20224;-58
2021/09/11 10:57:06;;;;;;;21.03;15.43;;;20.80;99.90;;;;;;5133759;27;20200;-53
2021/09/11 10:59:40;;;;;;;25.17;16.90;;;20.80;99.90;;;;;;5106106;27;20257;-55
2021/09/11 11:02:34;;;;;;;23.25;16.77;;;20.90;99.90;;;;;;5128715;27;20194;-55
2021/09/11 11:05:04;;;;;;;26.87;16.63;;;20.70;99.90;;;;;;5113570;27;20231;-56
2021/09/11 11:07:32;;;;;;;24.67;17.40;;;20.70;99.90;;;;;;5105624;27;20268;-58
2021/09/11 11:10:00;;;;;;;23.70;16.87;;;20.70;99.90;;;;;;5102506;27;20654;-59
2021/09/11 11:12:30;;;;;;;24.17;16.30;;;20.70;99.90;;;;;;5105919;27;20200;-58
2021/09/11 11:14:59;;;;;;;25.17;15.73;;;20.60;99.90;;;;;;5111754;27;20225;-52
2021/09/11 11:17:27;;;;;;;23.90;16.87;;;20.60;99.90;;;;;;5112276;27;20318;-58
2021/09/11 11:19:55;;;;;;;22.17;16.27;;;20.50;99.90;;;;;;5112799;27;20213;-54
2021/09/11 11:22:31;;;;;;;24.10;17.40;;;20.50;99.90;;;;;;5107231;27;20199;-55
2021/09/11 11:24:59;;;;;;;22.77;16.53;;;20.50;99.90;;;;;;5112265;27;20248;-54
2021/09/11 11:27:27;;;;;;;26.53;18.23;;;20.40;99.90;;;;;;5111169;27;20200;-50
2021/09/11 11:29:57;;;;;;;26.47;17.33;;;20.40;99.90;;;;;;5129623;27;20208;-55
2021/09/11 11:32:26;;;;;;;24.30;17.87;;;20.40;99.90;;;;;;5107885;27;20188;-55
2021/09/11 11:34:55;;;;;;;24.67;18.30;;;20.40;99.90;;;;;;5121753;27;20229;-53
2021/09/11 11:37:22;;;;;;;22.83;18.07;;;20.40;99.90;;;;;;5114761;27;20189;-53
2021/09/11 11:39:49;;;;;;;24.93;19.27;;;20.40;99.90;;;;;;5116042;27;20215;-50
2021/09/11 11:42:21;;;;;;;23.63;19.63;;;20.50;99.90;;;;;;5108654;27;20216;-52
2021/09/11 11:44:50;;;;;;;30.17;19.70;;;20.60;99.90;;;;;;5110977;27;20219;-53
2021/09/11 11:47:30;;;;;;;24.17;19.67;;;20.70;99.90;;;;;;5110232;27;20227;-52
2021/09/11 11:49:57;;;;;;;27.70;20.13;;;20.90;99.90;;;;;;5118133;27;20197;-54
2021/09/11 11:52:25;;;;;;;23.47;20.27;;;21.00;99.90;;;;;;5103293;27;20207;-53
2021/09/11 11:54:52;;;;;;;24.20;20.93;;;20.90;99.90;;;;;;5115482;27;20224;-52
2021/09/11 11:57:21;;;;;;;22.80;19.83;;;20.90;99.90;;;;;;5094726;27;20212;-49
2021/09/11 11:59:58;;;;;;;22.00;19.33;;;20.70;99.90;;;;;;5134483;27;20227;-53
2021/09/11 12:02:30;;;;;;;21.37;19.13;;;20.70;99.90;;;;;;5110535;27;20950;-53
2021/09/11 12:05:16;;;;;;;22.47;19.27;;;20.70;99.90;;;;;;5115089;27;20745;-51
2021/09/11 12:07:52;;;;;;;22.63;20.03;;;20.50;99.90;;;;;;5109145;27;20207;-49
2021/09/11 12:10:18;;;;;;;24.25;18.90;;;20.50;99.90;;;;;;5111803;27;20253;-58
2021/09/11 12:12:47;;;;;;;20.87;18.23;;;20.50;99.90;;;;;;5110976;27;20209;-52
2021/09/11 12:15:15;;;;;;;20.85;17.55;;;20.60;99.90;;;;;;5117448;27;20212;-56
2021/09/11 12:17:55;;;;;;;19.60;17.57;;;20.70;99.90;;;;;;5107750;27;20201;-50
2021/09/11 12:20:23;;;;;;;17.20;15.37;;;20.70;99.90;;;;;;5106301;27;20232;-50
2021/09/11 12:23:11;;;;;;;17.07;15.27;;;20.70;99.90;;;;;;5105922;27;20201;-52
2021/09/11 12:26:02;;;;;;;15.60;14.20;;;20.90;99.90;;;;;;5109417;27;20217;-52
2021/09/11 12:28:47;;;;;;;15.23;13.30;;;21.00;99.90;;;;;;5090812;27;20536;-49
2021/09/11 12:31:25;;;;;;;12.37;11.00;;;21.00;99.90;;;;;;5110377;27;20231;-49
2021/09/11 12:33:56;;;;;;;12.57;11.25;;;21.10;99.90;;;;;;5113249;27;20723;-53